Tiempo atmosférico en la estación meteorológica de Garganta De La Olla, Cáceres (690 m.)



Fecha
DESCASC
Temp. máxima en grados centígrados (hora)
DESCASC
Temp. mínima en grados centígrados (hora)
DESCASC
Temp. media en grados centígrados
DESCASC
Racha de viento máxima en m/sg (hora)
DESCASC
Velocidad máxima media en intervalos de 10 minutos(hora)
DESCASC
Precipitaciones diarias en mm
DESCASC
Precipitaciones de 00:00 a 06:00 en mm
DESCASC
Precipitaciones de 06:00 a 12:00 en mm
DESCASC
Precipitaciones de 12:00 a 18:00 en mm
DESCASC
Precipitaciones de 18:00 a 24:00 en mm
DESCASC

Gráficas

Temp. máximas Temp. mínimas Temp. medias Precipitaciones Rachas de viento máximas Velocidades máximas media en intervalos de 10 minutos

Datos horarios

Fecha y hora oficial Temperatura (ºC) Velocidad del viento (km/h) Dirección del viento Racha (km/h) Dirección de racha Precipitación (mm) Presión (hPa) Tendencia (hPa) Humedad (%)
2020-04-07 23:00:00 12.3 5 Noroeste 13 Noroeste 0 -- -- 93
2020-04-07 22:00:00 12.5 7 Noroeste 12 Noroeste 0 -- -- 94
2020-04-07 21:00:00 14 0 Calma 6 Sudoeste 0 -- -- 92
2020-04-07 20:00:00 15.3 2 Norte 5 Nordeste 0 -- -- 89
2020-04-07 19:00:00 15.4 0 Calma 15 Sur 0.4 -- -- 91
2020-04-07 18:00:00 15.7 3 Sur 12 Sudoeste 0.2 -- -- 91
2020-04-07 17:00:00 16.1 5 Sur 8 Sur 0 -- -- 82
2020-04-07 16:00:00 14 0 Calma 8 Sur 0.8 -- -- 97
2020-04-07 15:00:00 13.3 3 Sudeste 13 Sudeste 0.2 -- -- 98
2020-04-07 14:00:00 12.9 8 Sudeste 17 Sur 0.4 -- -- 99
2020-04-07 13:00:00 12.3 10 Sur 15 Sur 1.4 -- -- 99
2020-04-07 12:00:00 12 8 Sudoeste 12 Sudoeste 0.2 -- -- 98
2020-04-07 11:00:00 11.6 3 Sudoeste 8 Sudoeste 1 -- -- 98
2020-04-07 10:00:00 11.5 3 Sudoeste 13 Sudoeste 0.8 -- -- 99
2020-04-07 09:00:00 11.2 6 Sur 13 Sur 0.6 -- -- 100
2020-04-07 08:00:00 11.2 5 Sur 10 Sudoeste 0 -- -- 98
2020-04-07 07:00:00 11.1 2 Sudoeste 9 Noroeste 0 -- -- 99
2020-04-07 06:00:00 11.2 0 Calma 6 Oeste 0.2 -- -- 98
2020-04-07 05:00:00 11.2 4 Sudoeste 13 Noroeste 0.2 -- -- 98
2020-04-07 04:00:00 11.4 9 Noroeste 14 Noroeste 2 -- -- 98
2020-04-07 03:00:00 11.6 0 Calma 8 Sur 2.2 -- -- 98
2020-04-07 02:00:00 11.7 6 Sur 12 Sur 0 -- -- 99
2020-04-07 01:00:00 11.9 7 Sur 15 Sur 0 -- -- 99
2020-04-07 00:00:00 12.1 2 Sur 5 Sur 0 -- -- 97
2020-04-06 23:00:00 12.3 3 Sudoeste 5 Sudoeste 0.2 -- -- 96
2020-04-06 22:00:00 12.5 0 Calma 7 Sudoeste 0 -- -- 96
2020-04-06 21:00:00 12.8 5 Sudoeste 6 Sudoeste 0.2 -- -- 93
2020-04-06 20:00:00 13.6 0 Calma 10 Sudoeste 0 -- -- 89
2020-04-06 19:00:00 14.2 6 Sur 12 Sur 0 -- -- 83
2020-04-06 18:00:00 14.9 3 Sur 10 Sudeste 0 -- -- 75
2020-04-06 17:00:00 15.5 5 Sudeste 12 Sudeste 0 -- -- 74
2020-04-06 16:00:00 15.1 3 Sudeste 8 Sudeste 0 -- -- 72
2020-04-06 15:00:00 14.9 6 Este 15 Sudeste 0 -- -- 73
2020-04-06 14:00:00 14 6 Sur 13 Sudeste 0 -- -- 83
2020-04-06 13:00:00 14.9 8 Sur 20 Sur 0 -- -- 75
2020-04-06 12:00:00 13.9 9 Sudeste 18 Sudeste 0 -- -- 84
2020-04-06 11:00:00 12.5 4 Sudeste 9 Sudeste 0 -- -- 95
2020-04-06 10:00:00 11.4 3 Sur 5 Sur 0 -- -- 96
2020-04-06 09:00:00 10.8 3 Nordeste 13 Oeste 0 -- -- 95
2020-04-06 08:00:00 10.6 3 Sudoeste 12 Oeste 0 -- -- 97
2020-04-06 07:00:00 11.2 3 Sudeste 6 Noroeste 0 -- -- 99
2020-04-06 06:00:00 11.6 2 Noroeste 4 Norte 0 -- -- 99
2020-04-06 05:00:00 11.9 0 Calma 7 Sur 0 -- -- 100
2020-04-06 04:00:00 12 0 Calma 6 Sudoeste 0 -- -- 99
2020-04-06 03:00:00 12 0 Calma 5 Este 0 -- -- 99
2020-04-06 02:00:00 12.2 2 Norte 15 Sudoeste 0.4 -- -- 99
2020-04-06 01:00:00 12.2 3 Sudeste 6 Este 5.6 -- -- 99
2020-04-06 00:00:00 12.2 3 Nordeste 9 Nordeste 2.2 -- -- 99
2020-04-05 23:00:00 12.1 3 Este 14 Sur 2.4 -- -- 98
2020-04-05 22:00:00 11.8 3 Este 10 Este 3.8 -- -- 98
2020-04-05 21:00:00 11.7 5 Sudoeste 11 Sudoeste 6.2 -- -- 96
2020-04-05 20:00:00 11.9 3 Noroeste 13 Noroeste 2.4 -- -- 95
2020-04-05 19:00:00 12.1 3 Oeste 26 Sur 2.4 -- -- 93
2020-04-05 18:00:00 12.2 3 Oeste 12 Noroeste 0.6 -- -- 91
2020-04-05 17:00:00 12.4 3 Noroeste 17 Sur 0.6 -- -- 89
2020-04-05 16:00:00 13.8 8 Sur 20 Sudeste 0 -- -- 70
2020-04-05 15:00:00 13.8 12 Sudeste 23 Sudeste 0 -- -- 67
2020-04-05 14:00:00 13.4 10 Sudeste 24 Sudeste 0 -- -- 68
2020-04-05 13:00:00 13.7 8 Sudeste 20 Sudeste 0 -- -- 71
2020-04-05 12:00:00 12.8 9 Sudeste 23 Sudeste 0 -- -- 74
2020-04-05 11:00:00 11.5 9 Sur 20 Sudoeste 0 -- -- 78
2020-04-05 10:00:00 11.1 11 Sur 20 Sur 0 -- -- 78
2020-04-05 09:00:00 10.2 5 Sudoeste 14 Sudoeste 0 -- -- 82
2020-04-05 08:00:00 10.6 9 Sur 15 Sur 0 -- -- 76
2020-04-05 07:00:00 10.1 2 Sudoeste 9 Sudoeste 0 -- -- 77
2020-04-05 06:00:00 10.6 2 Oeste 6 Noroeste 0 -- -- 76
2020-04-05 05:00:00 10.8 4 Sudoeste 9 Sudoeste 0 -- -- 75
2020-04-05 04:00:00 10.2 0 Calma 11 Noroeste 0 -- -- 79
2020-04-05 03:00:00 10.2 9 Noroeste 14 Noroeste 0 -- -- 80
2020-04-05 02:00:00 10.7 2 Noroeste 9 Noroeste 0 -- -- 76
2020-04-05 01:00:00 10.2 0 Calma 6 Sudoeste 0 -- -- 76
2020-04-05 00:00:00 10.8 0 Calma 14 Sur 0 -- -- 69
2020-04-04 23:00:00 11.8 6 Sur 18 Sur 0 -- -- 63
2020-04-04 22:00:00 13 9 Sudoeste 22 Sudoeste 0 -- -- 60
2020-04-04 21:00:00 14.2 10 Sur 24 Sur 0 -- -- 53
2020-04-04 20:00:00 15.2 11 Sur 24 Sudeste 0 -- -- 55
2020-04-04 19:00:00 15.3 11 Sur 27 Sur 0 -- -- 53
2020-04-04 18:00:00 15.4 12 Sudeste 29 Sur 0 -- -- 51
2020-04-04 17:00:00 15.7 16 Sudeste 35 Sudeste 0 -- -- 47
2020-04-04 16:00:00 17.3 17 Sudeste 37 Sudeste 0 -- -- 43
2020-04-04 15:00:00 16 20 Sudeste 41 Sudeste 0 -- -- 44
2020-04-04 14:00:00 16.2 24 Sudeste 41 Sudeste 0 -- -- 45
2020-04-04 13:00:00 15.6 18 Sudeste 32 Sur 0 -- -- 59
2020-04-04 12:00:00 14.2 15 Sur 26 Sur 0 -- -- 61
2020-04-04 11:00:00 12.4 11 Sur 19 Sur 0 -- -- 64
2020-04-04 10:00:00 11.7 9 Sur 21 Sudoeste 0 -- -- 60
2020-04-04 09:00:00 9.2 4 Sur 12 Sur 0 -- -- 70
2020-04-04 08:00:00 7.1 3 Sur 14 Sudoeste 0 -- -- 71
2020-04-04 07:00:00 8.5 5 Sur 12 Sur 0 -- -- 64
2020-04-04 06:00:00 10.8 5 Sur 15 Sudoeste 0 -- -- 53
2020-04-04 05:00:00 10.6 3 Sudoeste 12 Sudeste 0 -- -- 54
2020-04-04 04:00:00 10.5 2 Sur 9 Sur 0 -- -- 54
2020-04-04 03:00:00 10.4 2 Sudoeste 10 Noroeste 0 -- -- 55
2020-04-04 02:00:00 9.9 6 Noroeste 9 Noroeste 0 -- -- 58
2020-04-04 01:00:00 10.7 3 Noroeste 7 Noroeste 0 -- -- 63
2020-04-04 00:00:00 11.1 0 Calma 12 Oeste 0 -- -- 63
2020-04-03 23:00:00 11.8 7 Noroeste 14 Noroeste 0 -- -- 59
2020-04-03 22:00:00 11.3 6 Noroeste 15 Noroeste 0 -- -- 60
2020-04-03 21:00:00 12 6 Noroeste 11 Noroeste 0 -- -- 55
2020-04-03 20:00:00 13.7 5 Sudoeste 17 Sudeste 0 -- -- 49
2020-04-03 19:00:00 16.5 6 Sur 21 Sur 0 -- -- 42
2020-04-03 18:00:00 17.3 9 Sur 19 Sur 0 -- -- 47
2020-04-03 17:00:00 17 9 Sudeste 21 Sur 0 -- -- 46
2020-04-03 16:00:00 16.6 6 Sudeste 21 Sur 0 -- -- 48
2020-04-03 15:00:00 16.2 8 Sudeste 21 Sudeste 0 -- -- 48
2020-04-03 14:00:00 15.7 10 Sudeste 21 Sur 0 -- -- 49
2020-04-03 13:00:00 15.3 10 Sur 21 Sudeste 0 -- -- 55
2020-04-03 12:00:00 14.5 8 Sur 17 Sudeste 0 -- -- 59
2020-04-03 11:00:00 13.4 7 Sur 13 Sur 0 -- -- 59
2020-04-03 10:00:00 11.7 3 Este 7 Este 0 -- -- 62
2020-04-03 09:00:00 9.3 2 Sudeste 4 Sur 0 -- -- 66
2020-04-03 08:00:00 7.5 3 Noroeste 13 Noroeste 0 -- -- 69
2020-04-03 07:00:00 7.9 4 Noroeste 17 Noroeste 0 -- -- 69
2020-04-03 06:00:00 7.7 10 Noroeste 15 Noroeste 0 -- -- 71
2020-04-03 05:00:00 8 4 Noroeste 13 Noroeste 0 -- -- 71
2020-04-03 04:00:00 8.1 8 Noroeste 14 Noroeste 0 -- -- 70
2020-04-03 03:00:00 8.1 7 Noroeste 13 Noroeste 0 -- -- 71
2020-04-03 02:00:00 9 5 Noroeste 14 Noroeste 0 -- -- 68
2020-04-03 01:00:00 8.5 5 Noroeste 10 Noroeste 0 -- -- 71
2020-04-03 00:00:00 8.9 5 Noroeste 11 Noroeste 0 -- -- 70
2020-04-02 23:00:00 9.5 5 Sudoeste 12 Noroeste 0 -- -- 68
2020-04-02 22:00:00 11.5 3 Oeste 30 Norte 0 -- -- 54
2020-04-02 21:00:00 12.8 10 Nordeste 37 Norte 0 -- -- 53
2020-04-02 20:00:00 13.6 14 Nordeste 40 Norte 0 -- -- 50
2020-04-02 19:00:00 15.1 0 Calma 9 Sudeste 0 -- -- 51
2020-04-02 18:00:00 14.4 6 Sudeste 17 Sudeste 0 -- -- 54
2020-04-02 17:00:00 14.9 6 Sudeste 18 Sur 0 -- -- 54
2020-04-02 16:00:00 14.6 7 Sur 19 Sur 0 -- -- 54
2020-04-02 15:00:00 15 9 Sur 21 Sur 0 -- -- 53
2020-04-02 14:00:00 13.8 12 Sudeste 27 Sur 0 -- -- 61
2020-04-02 13:00:00 14.2 17 Sudeste 29 Sudeste 0 -- -- 58
2020-04-02 12:00:00 13.5 6 Sudeste 14 Sudeste 0 -- -- 54
2020-04-02 11:00:00 11.6 5 Sudeste 9 Este 0 -- -- 68
2020-04-02 10:00:00 10.1 3 Este 6 Sudeste 0 -- -- 70
2020-04-02 09:00:00 7.2 2 Noroeste 8 Noroeste 0 -- -- 77
2020-04-02 08:00:00 4.7 5 Oeste 14 Noroeste 0 -- -- 85
2020-04-02 07:00:00 4.7 3 Noroeste 12 Noroeste 0 -- -- 83
2020-04-02 06:00:00 6 4 Sudoeste 14 Noroeste 0 -- -- 77
2020-04-02 05:00:00 6.1 3 Norte 9 Noroeste 0 -- -- 76
2020-04-02 04:00:00 7.1 6 Noroeste 8 Noroeste 0 -- -- 71
2020-04-02 03:00:00 7.7 3 Noroeste 9 Noroeste 0 -- -- 72
2020-04-02 02:00:00 6.9 0 Calma 16 Noroeste 0 -- -- 77
2020-04-02 01:00:00 6.3 6 Noroeste 14 Noroeste 0 -- -- 79
2020-04-02 00:00:00 6.6 7 Noroeste 11 Noroeste 0 -- -- 76
2020-04-01 23:00:00 6.1 8 Noroeste 13 Noroeste 0 -- -- 78
2020-04-01 22:00:00 7.1 5 Noroeste 10 Noroeste 0 -- -- 73
2020-04-01 21:00:00 7.4 5 Noroeste 8 Noroeste 0 -- -- 72
2020-04-01 20:00:00 9.4 4 Sur 9 Sur 0 -- -- 66
2020-04-01 19:00:00 10.7 7 Sur 15 Sudoeste 0 -- -- 61
2020-04-01 18:00:00 11.7 2 Noroeste 17 Sur 0 -- -- 54
2020-04-01 17:00:00 11.5 7 Sudeste 17 Sudeste 0 -- -- 55
2020-04-01 16:00:00 11.6 6 Sudeste 19 Sudeste 0 -- -- 60
2020-04-01 15:00:00 11.7 8 Sudeste 18 Sudeste 0 -- -- 58
2020-04-01 14:00:00 10.3 9 Sudeste 22 Sur 0 -- -- 63
2020-04-01 13:00:00 9.6 8 Sudeste 20 Sudeste 0 -- -- 68
2020-04-01 12:00:00 8.5 7 Sur 17 Sur 0 -- -- 74
2020-04-01 11:00:00 7.9 5 Sudeste 11 Sudeste 0 -- -- 77
2020-04-01 10:00:00 6.7 6 Sur 10 Sudeste 0 -- -- 99
2020-04-01 09:00:00 6 0 Calma 3 Sudeste 0 -- -- 100
2020-04-01 08:00:00 5.7 0 Calma 4 Norte 0 -- -- 99
2020-04-01 07:00:00 5.7 0 Calma 6 Noroeste 0 -- -- 99
2020-04-01 06:00:00 6 0 Calma 6 Sudoeste 0 -- -- 99
2020-04-01 05:00:00 6 2 Sudoeste 6 Sudoeste 0 -- -- 99
2020-04-01 04:00:00 6.2 4 Sudoeste 6 Sudoeste 0 -- -- 99
2020-04-01 03:00:00 6.5 2 Sur 15 Sur 0 -- -- 99
2020-04-01 02:00:00 6.9 4 Sur 19 Sudoeste 0 -- -- 97
2020-04-01 01:00:00 7.2 5 Sur 15 Sudoeste 0.2 -- -- 94
2020-04-01 00:00:00 7.2 3 Sur 9 Sudoeste 0 -- -- 95
2020-03-31 23:00:00 7.3 5 Sudoeste 12 Sudoeste 0 -- -- 95
2020-03-31 22:00:00 7.5 5 Sudoeste 17 Sur 0 -- -- 97
2020-03-31 21:00:00 7.8 6 Sudoeste 17 Sur 0.2 -- -- 94
2020-03-31 20:00:00 8.1 5 Sur 10 Sudeste 1.8 -- -- 98
2020-03-31 19:00:00 7.8 5 Sur 13 Sudoeste 2.2 -- -- 97
2020-03-31 18:00:00 8 6 Sudoeste 9 Sur 0.4 -- -- 98
2020-03-31 17:00:00 7.4 0 Calma 14 Sur 0 -- -- 97
2020-03-31 16:00:00 6.7 4 Sudoeste 15 Sur 0.2 -- -- 96
2020-03-31 15:00:00 6.2 8 Sudoeste 15 Sur 1 -- -- 98
2020-03-31 14:00:00 5.8 5 Sudoeste 22 Sur 0.2 -- -- 96
2020-03-31 13:00:00 5.1 8 Sur 19 Sur 0.8 -- -- 98
2020-03-31 12:00:00 4.2 5 Sur 21 Sudeste 0.8 -- -- 98
2020-03-31 11:00:00 3.4 4 Sudoeste 18 Sudoeste 1.2 -- -- 99
2020-03-31 10:00:00 2.2 2 Noroeste 9 Oeste 1.8 -- -- 99
2020-03-31 09:00:00 1.5 3 Oeste 14 Oeste 2.4 -- -- 98
2020-03-31 08:00:00 1 5 Sudoeste 14 Sur 2.4 -- -- 98
2020-03-31 07:00:00 1.4 3 Oeste 24 Sur 1.2 -- -- 98
2020-03-31 06:00:00 1.9 9 Sudoeste 18 Sudoeste 0.2 -- -- 98
2020-03-31 05:00:00 1.7 7 Sudeste 18 Sur 0 -- -- 99
2020-03-31 04:00:00 1.5 8 Sur 14 Sur 0.8 -- -- 99
2020-03-31 03:00:00 1.7 7 Sudeste 17 Sudeste 0.4 -- -- 100
2020-03-31 02:00:00 1.7 7 Sur 16 Sur 0.4 -- -- 100
2020-03-31 01:00:00 1.9 8 Sudeste 21 Sudeste 0.6 -- -- 99
2020-03-31 00:00:00 2.1 9 Sur 22 Sur 1 -- -- 99
2020-03-30 23:00:00 2.2 10 Sudeste 22 Sudeste 0.8 -- -- 99
2020-03-30 22:00:00 2.7 11 Sudeste 21 Sur 1.4 -- -- 98
2020-03-30 21:00:00 3.5 12 Sur 24 Sudeste 3 -- -- 98
2020-03-30 20:00:00 4.3 4 Este 22 Este 1.2 -- -- 95
2020-03-30 19:00:00 4.9 8 Sudeste 21 Sudeste 0.8 -- -- 93
2020-03-30 18:00:00 6 5 Sudeste 19 Sudeste 1.4 -- -- 89
2020-03-30 17:00:00 7.4 10 Sudeste 20 Sudeste 0.4 -- -- 83
2020-03-30 16:00:00 8.6 8 Sudeste 17 Sudeste 0 -- -- 74
2020-03-30 15:00:00 8.9 10 Sudeste 20 Sur 0 -- -- 74
2020-03-30 14:00:00 9.7 10 Sudeste 21 Sudeste 0 -- -- 73
2020-03-30 13:00:00 9.8 8 Sudeste 18 Sudeste 0 -- -- 82
2020-03-30 12:00:00 9.4 6 Sur 12 Sudeste 0 -- -- 86
2020-03-30 11:00:00 8.3 3 Oeste 17 Sur 0.4 -- -- 90
2020-03-30 10:00:00 9.7 8 Sur 14 Sur 0 -- -- 77
2020-03-30 09:00:00 9.3 3 Sur 9 Sudeste 0 -- -- 78
2020-03-30 08:00:00 9.3 7 Nordeste 14 Este 0 -- -- 76
2020-03-30 07:00:00 9.1 0 Calma 22 Sur 0 -- -- 78
2020-03-30 06:00:00 10.2 3 Sudoeste 10 Sur 0 -- -- 65
2020-03-30 05:00:00 10.3 0 Calma 9 Noroeste 0 -- -- 64
2020-03-30 04:00:00 11.9 3 Noroeste 11 Noroeste 0 -- -- 54
2020-03-30 03:00:00 12.3 0 Calma 22 Noroeste 0 -- -- 53
2020-03-30 02:00:00 13 13 Noroeste 29 Noroeste 0 -- -- 49
2020-03-30 01:00:00 12.8 22 Noroeste 33 Noroeste 0 -- -- 50
2020-03-30 00:00:00 12.6 15 Norte 29 Noroeste 0 -- -- 50
2020-03-29 23:00:00 12.7 9 Norte 20 Norte 0 -- -- 52
2020-03-29 22:00:00 12.5 10 Noroeste 21 Oeste 0 -- -- 53
2020-03-29 21:00:00 13 4 Noroeste 24 Noroeste 0 -- -- 53
2020-03-29 20:00:00 14.9 6 Noroeste 17 Noroeste 0 -- -- 48
2020-03-29 19:00:00 16.1 6 Sur 20 Sudoeste 0 -- -- 43
2020-03-29 18:00:00 16.7 6 Sudoeste 24 Sur 0 -- -- 41
2020-03-29 17:00:00 18.1 12 Sur 24 Sur 0 -- -- 39
2020-03-29 16:00:00 18 7 Sudoeste 25 Sudeste 0 -- -- 39
2020-03-29 15:00:00 16.9 13 Sudeste 27 Sudeste 0 -- -- 40
2020-03-29 14:00:00 16.3 11 Sur 19 Sudeste 0 -- -- 50
2020-03-29 13:00:00 15.4 11 Sur 19 Sur 0 -- -- 49
2020-03-29 12:00:00 14.2 8 Sudeste 15 Sur 0 -- -- 47
2020-03-29 11:00:00 13.1 5 Sudeste 10 Sudeste 0 -- -- 45
2020-03-29 10:00:00 12 3 Este 4 Este 0 -- -- 45
2020-03-29 09:00:00 9.4 3 Sur 12 Noroeste 0 -- -- 53
2020-03-29 08:00:00 8.4 4 Oeste 9 Noroeste 0 -- -- 51
2020-03-29 07:00:00 8.4 5 Noroeste 16 Noroeste 0 -- -- 50
2020-03-29 06:00:00 8.6 11 Noroeste 17 Noroeste 0 -- -- 52
2020-03-29 05:00:00 8.6 9 Noroeste 15 Noroeste 0 -- -- 53
2020-03-29 03:00:00 8.4 10 Noroeste 14 Noroeste 0 -- -- 53
2020-03-29 01:00:00 8.9 6 Noroeste 12 Noroeste 0 -- -- 51
2020-03-29 00:00:00 8.6 6 Noroeste 10 Noroeste 0 -- -- 50
2020-03-28 23:00:00 9.5 6 Noroeste 11 Noroeste 0 -- -- 46
2020-03-28 22:00:00 9.5 7 Noroeste 12 Noroeste 0 -- -- 45
2020-03-28 21:00:00 9.3 10 Noroeste 15 Noroeste 0 -- -- 47
2020-03-28 20:00:00 10.2 8 Noroeste 12 Noroeste 0 -- -- 46
2020-03-28 19:00:00 12.2 4 Sur 12 Sudeste 0 -- -- 40
2020-03-28 18:00:00 14 7 Sur 20 Sudeste 0 -- -- 37
2020-03-28 17:00:00 14.4 10 Sur 28 Sur 0 -- -- 37
2020-03-28 16:00:00 14.8 14 Sur 32 Sudeste 0 -- -- 37
2020-03-28 15:00:00 14.7 13 Sur 32 Sudeste 0 -- -- 39
2020-03-28 14:00:00 14.1 9 Sudeste 27 Sudeste 0 -- -- 50
2020-03-28 13:00:00 13 12 Sur 27 Sur 0 -- -- 59
2020-03-28 12:00:00 11.3 12 Sur 27 Sudeste 0 -- -- 60
2020-03-28 11:00:00 10.8 16 Sur 28 Sur 0 -- -- 55
2020-03-28 10:00:00 9.5 11 Sudeste 22 Sudeste 0 -- -- 58
2020-03-28 09:00:00 8.5 8 Sudeste 18 Sur 0 -- -- 59
2020-03-28 08:00:00 5.6 4 Sudoeste 19 Sudoeste 0 -- -- 71
2020-03-28 07:00:00 4 0 Calma 10 Sudoeste 0 -- -- 78
2020-03-28 06:00:00 3.6 2 Noroeste 9 Sur 0 -- -- 81
2020-03-28 05:00:00 4.4 3 Oeste 9 Sudoeste 0 -- -- 79
2020-03-28 04:00:00 4.8 4 Sur 12 Noroeste 0 -- -- 77
2020-03-28 03:00:00 4.2 7 Noroeste 14 Noroeste 0 -- -- 81
2020-03-28 02:00:00 5 0 Calma 14 Sur 0 -- -- 78
2020-03-28 01:00:00 5.4 5 Sur 16 Sur 0 -- -- 73
2020-03-28 00:00:00 5.7 7 Sudoeste 12 Sur 0 -- -- 69
2020-03-27 23:00:00 5.6 2 Norte 5 Sur 0 -- -- 67
2020-03-27 22:00:00 5.9 0 Calma 11 Sudeste 0 -- -- 65
2020-03-27 21:00:00 6.4 2 Sudoeste 17 Sur 0 -- -- 62
2020-03-27 20:00:00 7.2 5 Sur 19 Sudeste 0 -- -- 61
2020-03-27 19:00:00 8.2 9 Sur 23 Sur 0 -- -- 62
2020-03-27 18:00:00 9.2 13 Sur 31 Sur 0 -- -- 59
2020-03-27 17:00:00 9.7 16 Sur 29 Sur 0 -- -- 55
2020-03-27 16:00:00 9.7 8 Sudeste 28 Sudeste 0 -- -- 59
2020-03-27 15:00:00 6.9 6 Este 27 Sudeste 0 -- -- 67
2020-03-27 14:00:00 6.6 10 Sur 29 Sudeste 0 -- -- 70
2020-03-27 13:00:00 7.4 14 Sudeste 32 Este 0 -- -- 67
2020-03-27 12:00:00 7.4 15 Sudeste 33 Sudeste 0 -- -- 63
2020-03-27 11:00:00 7.7 17 Sudeste 41 Sudeste 0 -- -- 62
2020-03-27 10:00:00 8.3 17 Sur 30 Sur 0 -- -- 56
2020-03-27 09:00:00 7.7 8 Sur 18 Sur 0 -- -- 55
2020-03-27 08:00:00 6 2 Sur 10 Sur 0 -- -- 59
2020-03-27 07:00:00 5.7 5 Sudoeste 21 Sur 0 -- -- 59
2020-03-27 06:00:00 5.7 3 Oeste 8 Oeste 0 -- -- 58
2020-03-27 05:00:00 6.1 0 Calma 8 Oeste 0 -- -- 58
2020-03-27 04:00:00 5.9 2 Sur 15 Noroeste 0 -- -- 60
2020-03-27 03:00:00 7.1 3 Oeste 15 Sur 0 -- -- 56
2020-03-27 02:00:00 7.6 0 Calma 9 Sudoeste 0 -- -- 53
2020-03-27 01:00:00 8.1 6 Noroeste 13 Noroeste 0 -- -- 51
2020-03-27 00:00:00 9 5 Noroeste 11 Sudoeste 0 -- -- 48
2020-03-26 23:00:00 10.8 9 Sudeste 24 Sudeste 0 -- -- 43
2020-03-26 22:00:00 10.6 9 Noroeste 24 Norte 0 -- -- 54
2020-03-26 21:00:00 12.1 21 Norte 30 Norte 0 -- -- 47
2020-03-26 20:00:00 12.3 16 Norte 24 Norte 0 -- -- 50
2020-03-26 19:00:00 14.5 15 Noroeste 33 Noroeste 0 -- -- 43
2020-03-26 18:00:00 16.3 13 Norte 38 Noroeste 0 -- -- 34
2020-03-26 17:00:00 16.9 24 Norte 45 Noroeste 0 -- -- 32
2020-03-26 16:00:00 17.8 24 Noroeste 43 Noroeste 0 -- -- 31
2020-03-26 15:00:00 17.9 24 Noroeste 45 Noroeste 0 -- -- 30
2020-03-26 14:00:00 17.1 12 Sudeste 21 Sur 0 -- -- 57
2020-03-26 13:00:00 16.2 13 Sudeste 22 Sudeste 0 -- -- 60
2020-03-26 12:00:00 15.9 10 Sur 19 Sur 0 -- -- 56
2020-03-26 11:00:00 14.8 10 Sur 18 Sur 0 -- -- 60
2020-03-26 10:00:00 13.5 9 Sur 17 Norte 0 -- -- 65
2020-03-26 09:00:00 13.4 11 Norte 19 Noroeste 0 -- -- 26
2020-03-26 08:00:00 11.7 15 Noroeste 31 Noroeste 0 -- -- 33
2020-03-26 07:00:00 10.8 16 Noroeste 27 Noroeste 0 -- -- 27
2020-03-26 06:00:00 10.5 13 Noroeste 21 Noroeste 0 -- -- 32
2020-03-26 05:00:00 10.6 5 Oeste 22 Noroeste 0 -- -- 33
2020-03-26 04:00:00 11.7 17 Norte 39 Norte 0 -- -- 40
2020-03-26 03:00:00 11.4 17 Noroeste 28 Noroeste 0 -- -- 48
2020-03-26 02:00:00 12 15 Noroeste 44 Noroeste 0 -- -- 51
2020-03-26 01:00:00 12.5 32 Norte 64 Norte 0 -- -- 62
2020-03-26 00:00:00 12 31 Norte 51 Norte 0 -- -- 75
2020-03-25 23:00:00 12.2 17 Norte 36 Norte 0 -- -- 78
2020-03-25 22:00:00 9.6 5 Noroeste 14 Noroeste 0.6 -- -- 91
2020-03-25 21:00:00 10.9 12 Norte 31 Norte 1.8 -- -- 85
2020-03-25 20:00:00 12 3 Sur 14 Norte 0.4 -- -- 86
2020-03-25 19:00:00 14.1 7 Noroeste 21 Oeste 0 -- -- 72
2020-03-25 18:00:00 13.3 8 Noroeste 32 Noroeste 0.8 -- -- 75
2020-03-25 17:00:00 14.9 14 Norte 36 Norte 0 -- -- 65
2020-03-25 16:00:00 15.4 15 Noroeste 33 Noroeste 0 -- -- 66
2020-03-25 15:00:00 16.8 14 Norte 38 Norte 0 -- -- 51
2020-03-25 14:00:00 16.6 7 Norte 24 Noroeste 0 -- -- 55
2020-03-25 13:00:00 15.5 9 Sur 21 Sudeste 0 -- -- 61
2020-03-25 12:00:00 14.5 12 Sur 21 Sur 0 -- -- 65
2020-03-25 11:00:00 13.6 10 Sudeste 17 Sudeste 0 -- -- 65
2020-03-25 10:00:00 11.6 4 Sudeste 12 Sudeste 0 -- -- 69
2020-03-25 09:00:00 10.4 6 Sudeste 8 Sudeste 0 -- -- 73
2020-03-25 08:00:00 7.5 0 Calma 4 Sur 0 -- -- 82
2020-03-25 07:00:00 7.2 3 Noroeste 8 Noroeste 0 -- -- 82
2020-03-25 06:00:00 7.4 3 Sudoeste 5 Sudoeste 0 -- -- 82
2020-03-25 05:00:00 7.9 2 Oeste 6 Sudeste 0 -- -- 81
2020-03-25 04:00:00 8.7 4 Sur 8 Sur 0 -- -- 79
2020-03-25 03:00:00 8.8 4 Noroeste 6 Noroeste 0 -- -- 77
2020-03-25 02:00:00 9.8 3 Sudoeste 12 Sur 0 -- -- 76
2020-03-25 01:00:00 10.6 6 Sur 22 Sudeste 0 -- -- 73
2020-03-25 00:00:00 11 7 Sudeste 17 Sudeste 0 -- -- 73
2020-03-24 23:00:00 10.8 2 Este 9 Norte 0 -- -- 72
2020-03-24 22:00:00 10.4 0 Calma 11 Noroeste 0 -- -- 73
2020-03-24 21:00:00 11 2 Sur 11 Sudoeste 0 -- -- 71
2020-03-24 20:00:00 12.3 4 Sudoeste 22 Sudeste 0 -- -- 68
2020-03-24 19:00:00 12.9 9 Sur 28 Sudeste 0 -- -- 63
2020-03-24 18:00:00 13.4 8 Sudeste 25 Sudeste 0 -- -- 65
2020-03-24 17:00:00 14.1 15 Sudeste 32 Este 0 -- -- 62
2020-03-24 16:00:00 14.7 19 Sur 41 Sudeste 0 -- -- 59
2020-03-24 15:00:00 15.5 21 Sudeste 42 Sudeste 0 -- -- 53
2020-03-24 14:00:00 14.2 21 Sudeste 49 Sur 0 -- -- 57
2020-03-24 13:00:00 14.7 29 Sur 48 Sudeste 0 -- -- 55
2020-03-24 12:00:00 12.5 20 Sudeste 53 Sudeste 0 -- -- 60
2020-03-24 11:00:00 12.7 27 Sudeste 49 Sur 0.2 -- -- 60
2020-03-24 10:00:00 11.7 19 Sur 35 Sudeste 0 -- -- 67
2020-03-24 09:00:00 9.8 9 Sudoeste 22 Sur 0 -- -- 76
2020-03-24 08:00:00 9.3 8 Sur 32 Sur 0 -- -- 81
2020-03-24 07:00:00 10.3 15 Sur 39 Sudeste 0 -- -- 72
2020-03-24 06:00:00 10.8 8 Sur 32 Sur 0 -- -- 67
2020-03-24 05:00:00 10.8 11 Sudeste 40 Sur 0 -- -- 69
2020-03-24 04:00:00 10.4 12 Sudeste 39 Sur 0 -- -- 74
2020-03-24 03:00:00 10.6 18 Sudeste 42 Este 0 -- -- 73
2020-03-24 02:00:00 10.6 15 Sudeste 34 Sudeste 0 -- -- 75
2020-03-24 01:00:00 10.8 12 Sur 44 Sudeste 0 -- -- 74
2020-03-24 00:00:00 10.9 21 Sur 40 Sur 0 -- -- 73
2020-03-23 23:00:00 11 14 Sur 30 Sur 0 -- -- 72
2020-03-23 22:00:00 10.2 6 Sur 29 Sur 0 -- -- 72
2020-03-23 21:00:00 10.8 20 Sur 35 Sur 0 -- -- 73
2020-03-23 20:00:00 11.2 9 Sudoeste 21 Sur 0 -- -- 67
2020-03-23 19:00:00 11.4 7 Sur 25 Sur 0 -- -- 64
2020-03-23 18:00:00 12.8 19 Sur 37 Sudeste 0 -- -- 58
2020-03-23 17:00:00 13.4 19 Sudeste 37 Sur 0 -- -- 57
2020-03-23 16:00:00 12.1 6 Noroeste 13 Este 0.2 -- -- 76
2020-03-23 15:00:00 9.4 4 Noroeste 30 Sudeste 2.4 -- -- 89
2020-03-23 14:00:00 12.2 14 Sur 24 Sudeste 0 -- -- 69
2020-03-23 13:00:00 10.9 4 Nordeste 16 Sur 0.2 -- -- 84
2020-03-23 12:00:00 10.9 4 Nordeste 22 Sudeste 0 -- -- 74
2020-03-23 11:00:00 9.6 10 Sudeste 32 Sur 0 -- -- 82
2020-03-23 10:00:00 9 11 Sur 22 Sur 0 -- -- 85
2020-03-23 09:00:00 8.7 6 Sur 17 Sur 0 -- -- 85
2020-03-23 08:00:00 8.1 0 Calma 6 Sudoeste 0 -- -- 89
2020-03-23 07:00:00 8.4 8 Sudoeste 20 Sudoeste 0 -- -- 84
2020-03-23 06:00:00 8.2 5 Sur 10 Sudoeste 0 -- -- 87
2020-03-23 05:00:00 8.2 4 Sur 14 Sudoeste 0 -- -- 90
2020-03-23 04:00:00 8.1 4 Sudoeste 6 Oeste 0 -- -- 89
2020-03-23 03:00:00 8 3 Oeste 8 Sudoeste 0 -- -- 89
2020-03-23 02:00:00 8 6 Sudoeste 12 Noroeste 0 -- -- 89
2020-03-23 01:00:00 8 3 Norte 15 Sudoeste 0 -- -- 87
2020-03-23 00:00:00 8.1 3 Noroeste 18 Noroeste 0 -- -- 86
2020-03-22 23:00:00 8.2 6 Noroeste 10 Noroeste 0 -- -- 89
2020-03-22 22:00:00 8.2 4 Oeste 10 Noroeste 0 -- -- 90
2020-03-22 21:00:00 7.9 6 Noroeste 15 Noroeste 0 -- -- 93
2020-03-22 20:00:00 8.4 4 Sudoeste 9 Sudoeste 0 -- -- 96
2020-03-22 19:00:00 9 6 Sudoeste 12 Sudeste 0 -- -- 93
2020-03-22 18:00:00 9 3 Norte 16 Nordeste 2.6 -- -- 94
2020-03-22 17:00:00 10.7 6 Nordeste 15 Nordeste 0 -- -- 81
2020-03-22 16:00:00 10 2 Noroeste 25 Norte 0.8 -- -- 87
2020-03-22 15:00:00 13.1 10 Sur 22 Sur 0 -- -- 65
2020-03-22 14:00:00 13.9 8 Sur 15 Sur 0 -- -- 62
2020-03-22 13:00:00 11.2 6 Sudeste 19 Sur 0 -- -- 75
2020-03-22 12:00:00 12.1 12 Sur 23 Sur 0 -- -- 70
2020-03-22 11:00:00 11 5 Este 10 Sudeste 0 -- -- 71
2020-03-22 10:00:00 9.5 6 Sur 13 Sur 0 -- -- 81
2020-03-22 09:00:00 8.6 5 Sudeste 12 Este 0 -- -- 82
2020-03-22 08:00:00 5.5 2 Oeste 12 Noroeste 0 -- -- 95
2020-03-22 07:00:00 4.7 9 Noroeste 16 Noroeste 0 -- -- 89
2020-03-22 06:00:00 6.1 3 Noroeste 5 Sudoeste 0 -- -- 90
2020-03-22 05:00:00 6.6 2 Sur 4 Sudeste 0 -- -- 88
2020-03-22 04:00:00 7.4 3 Oeste 9 Sur 0 -- -- 84
2020-03-22 03:00:00 7.5 3 Sur 17 Sudeste 0 -- -- 82
2020-03-22 02:00:00 7.7 3 Sudeste 12 Noroeste 0 -- -- 78
2020-03-22 01:00:00 7.2 3 Sudoeste 7 Noroeste 0 -- -- 77
2020-03-22 00:00:00 6.2 0 Calma 4 Norte 0 -- -- 82
2020-03-21 23:00:00 6.9 0 Calma 6 Oeste 0 -- -- 75
2020-03-21 22:00:00 6.2 6 Oeste 14 Noroeste 0 -- -- 82
2020-03-21 21:00:00 6.7 2 Sudoeste 6 Sudoeste 0 -- -- 87
2020-03-21 20:00:00 6.9 3 Noroeste 11 Sudoeste 0 -- -- 88
2020-03-21 19:00:00 8.3 7 Sudoeste 14 Sur 0 -- -- 79
2020-03-21 18:00:00 10.6 10 Sur 19 Sur 0 -- -- 69
2020-03-21 17:00:00 11.1 4 Oeste 15 Sur 0 -- -- 69
2020-03-21 16:00:00 9.3 5 Sudeste 13 Sur 0 -- -- 77
2020-03-21 15:00:00 8 2 Sudeste 9 Sur 0 -- -- 87
2020-03-21 14:00:00 7.5 5 Sur 12 Sur 0.4 -- -- 89
2020-03-21 13:00:00 7.1 4 Sur 7 Sudeste 0.4 -- -- 90
2020-03-21 12:00:00 6 4 Norte 8 Norte 1.6 -- -- 93
2020-03-21 11:00:00 5.9 3 Nordeste 6 Nordeste 2.4 -- -- 95
2020-03-21 10:00:00 5.7 4 Nordeste 21 Sudoeste 2.6 -- -- 97
2020-03-21 09:00:00 6.2 9 Sudoeste 28 Sudoeste 3.6 -- -- 94
2020-03-21 08:00:00 6.9 12 Sudeste 28 Sudoeste 4.8 -- -- 99
2020-03-21 07:00:00 7.2 16 Sur 32 Sur 3.6 -- -- 98
2020-03-21 06:00:00 7.5 10 Sudoeste 21 Sudoeste 3 -- -- 98
2020-03-21 05:00:00 7.5 9 Sur 21 Sur 1.6 -- -- 98
2020-03-21 04:00:00 7.5 12 Sur 21 Sur 2.8 -- -- 98
2020-03-21 03:00:00 7.8 11 Sur 34 Sur 5 -- -- 97
2020-03-21 02:00:00 8.6 19 Sudeste 56 Sur 1.6 -- -- 92
2020-03-21 01:00:00 9.1 21 Sur 45 Sur 0.2 -- -- 88
2020-03-21 00:00:00 10 24 Sur 43 Sur 0 -- -- 83
2020-03-20 23:00:00 10.1 18 Sur 31 Sur 0 -- -- 85
2020-03-20 22:00:00 9.7 10 Sudoeste 28 Sur 2.6 -- -- 91
2020-03-20 21:00:00 9.6 10 Sudoeste 22 Sudoeste 7.8 -- -- 93
2020-03-20 20:00:00 10.8 15 Sudoeste 29 Sudoeste 2.2 -- -- 84
2020-03-20 19:00:00 11.3 6 Sur 27 Sudoeste 0 -- -- 79
2020-03-20 18:00:00 10.9 8 Sur 30 Sur 0 -- -- 80
2020-03-20 17:00:00 10.5 6 Sur 19 Sudoeste 0 -- -- 86
2020-03-20 16:00:00 9.5 5 Sudoeste 18 Sur 0.6 -- -- 91
2020-03-20 15:00:00 8.9 3 Norte 13 Sudoeste 0.2 -- -- 94
2020-03-20 14:00:00 8.8 8 Sudoeste 16 Sur 0.8 -- -- 96
2020-03-20 13:00:00 8.9 10 Sur 26 Sudeste 0.2 -- -- 93
2020-03-20 12:00:00 9 9 Sudeste 21 Sur 0 -- -- 92
2020-03-20 11:00:00 8.7 5 Sur 18 Sur 0 -- -- 93
2020-03-20 10:00:00 8.9 7 Sur 14 Sudoeste 0.2 -- -- 93
2020-03-20 09:00:00 8.9 5 Sudoeste 18 Sur 0.4 -- -- 90
2020-03-20 08:00:00 9.2 5 Sur 19 Sur 0 -- -- 87
2020-03-20 07:00:00 9.3 8 Sur 19 Sur 0 -- -- 87
2020-03-20 06:00:00 9.3 6 Sur 13 Sur 0 -- -- 87
2020-03-20 05:00:00 9.6 5 Sudoeste 16 Sur 0 -- -- 84
2020-03-20 04:00:00 9.3 0 Calma 13 Sudoeste 0 -- -- 84
2020-03-20 03:00:00 10.4 6 Sudoeste 24 Sudoeste 0 -- -- 79
2020-03-20 02:00:00 10.8 9 Sudoeste 21 Sudoeste 0 -- -- 78
2020-03-20 01:00:00 11.5 9 Sur 23 Sudoeste 0 -- -- 74
2020-03-20 00:00:00 12.3 10 Sur 21 Sudoeste 0 -- -- 69
2020-03-19 23:00:00 13.2 8 Sudoeste 20 Sudoeste 0 -- -- 62
2020-03-19 22:00:00 13 4 Sur 14 Sudoeste 0 -- -- 62
2020-03-19 21:00:00 12.6 3 Sudoeste 12 Sudoeste 0 -- -- 63
2020-03-19 20:00:00 12 3 Oeste 9 Oeste 0 -- -- 68
2020-03-19 19:00:00 12.4 4 Sur 7 Sudeste 0 -- -- 67
2020-03-19 18:00:00 12.9 3 Oeste 12 Sudeste 0 -- -- 66
2020-03-19 17:00:00 12.8 9 Sudeste 14 Sudeste 0 -- -- 66
2020-03-19 16:00:00 12.9 9 Sudeste 18 Sudeste 0 -- -- 66
2020-03-19 15:00:00 13.4 11 Sudeste 22 Sudeste 0 -- -- 63
2020-03-19 14:00:00 13.5 9 Sur 20 Sudeste 0 -- -- 62
2020-03-19 13:00:00 13.3 10 Sur 20 Sur 0 -- -- 60
2020-03-19 12:00:00 12.4 8 Sudeste 17 Sudeste 0 -- -- 63
2020-03-19 11:00:00 11.4 8 Sur 15 Sur 0 -- -- 62
2020-03-19 10:00:00 10.4 4 Sur 12 Sudoeste 0 -- -- 68
2020-03-19 09:00:00 9.4 3 Sudoeste 14 Sur 0 -- -- 70
2020-03-19 08:00:00 9.4 8 Sudoeste 15 Sudoeste 0 -- -- 67
2020-03-19 07:00:00 10.5 6 Oeste 12 Sudoeste 0 -- -- 64
2020-03-19 06:00:00 10.9 3 Noroeste 18 Sur 0 -- -- 63
2020-03-19 05:00:00 11.3 8 Sudoeste 17 Sur 0 -- -- 63
2020-03-19 04:00:00 11.6 5 Oeste 17 Sudoeste 0 -- -- 67
2020-03-19 03:00:00 11.7 5 Sudoeste 16 Sudoeste 0 -- -- 68
2020-03-19 02:00:00 11.8 7 Sudoeste 26 Sur 0 -- -- 70
2020-03-19 01:00:00 12.4 6 Sudoeste 19 Sur 0 -- -- 72
2020-03-19 00:00:00 12.6 8 Sur 22 Sur 0 -- -- 69
2020-03-18 23:00:00 12.8 5 Sudoeste 15 Sur 0 -- -- 67
2020-03-18 22:00:00 13.5 4 Sur 19 Sur 0 -- -- 59
2020-03-18 21:00:00 13.7 6 Sur 26 Sudoeste 0 -- -- 62
2020-03-18 20:00:00 14 5 Sudoeste 22 Sur 0 -- -- 61
2020-03-18 19:00:00 14.1 4 Sudeste 18 Este 0 -- -- 63
2020-03-18 18:00:00 14.4 6 Sur 22 Sudoeste 0 -- -- 62
2020-03-18 17:00:00 15.2 12 Sur 22 Sur 0 -- -- 59
2020-03-18 16:00:00 15.3 12 Sudeste 32 Sur 0 -- -- 59
2020-03-18 15:00:00 15.2 13 Sur 31 Sur 0 -- -- 58
2020-03-18 14:00:00 14.9 18 Sur 33 Sur 0 -- -- 60
2020-03-18 13:00:00 15.4 17 Sur 33 Sudeste 0 -- -- 56
2020-03-18 12:00:00 15.2 17 Sur 33 Sur 0 -- -- 57
2020-03-18 11:00:00 13.4 14 Sur 35 Sur 0 -- -- 65
2020-03-18 10:00:00 11.7 22 Sur 36 Sur 0 -- -- 68
2020-03-18 09:00:00 11.1 6 Oeste 23 Sudoeste 0 -- -- 73
2020-03-18 08:00:00 10.2 5 Sudoeste 23 Oeste 0 -- -- 75
2020-03-18 07:00:00 9.6 11 Sudoeste 20 Oeste 0 -- -- 82
2020-03-18 06:00:00 10.1 6 Sudoeste 23 Sur 0 -- -- 80
2020-03-18 05:00:00 10.8 6 Sur 34 Sur 0 -- -- 79
2020-03-18 04:00:00 11.1 12 Sudoeste 36 Sur 0 -- -- 78
2020-03-18 03:00:00 11.8 17 Sur 35 Sur 0 -- -- 77
2020-03-18 02:00:00 11.4 4 Sudeste 29 Sur 0 -- -- 77
2020-03-18 01:00:00 12.8 13 Sur 27 Sudoeste 0 -- -- 72
2020-03-18 00:00:00 13.2 14 Sur 28 Sur 0 -- -- 69
2020-03-17 23:00:00 13.3 15 Sur 40 Sudeste 0 -- -- 70
2020-03-17 22:00:00 13.9 19 Sur 46 Sudeste 0 -- -- 70
2020-03-17 21:00:00 14 17 Sur 33 Sur 0 -- -- 66
2020-03-17 20:00:00 13.8 20 Sur 39 Sur 0 -- -- 67
2020-03-17 19:00:00 14.1 16 Sur 46 Sudeste 0 -- -- 64
2020-03-17 18:00:00 13.9 18 Sur 48 Sudeste 0 -- -- 65
2020-03-17 17:00:00 13.9 21 Sur 52 Sudeste 0 -- -- 62
2020-03-17 16:00:00 13.6 26 Sur 55 Sur 0 -- -- 55
2020-03-17 15:00:00 12.3 22 Sudeste 52 Sudeste 0 -- -- 59
2020-03-17 14:00:00 12.6 21 Sudeste 47 Sur 0 -- -- 60
2020-03-17 13:00:00 12 23 Sudeste 49 Sudeste 0 -- -- 62
2020-03-17 12:00:00 11.4 24 Sudeste 49 Sur 0 -- -- 65
2020-03-17 11:00:00 9.5 12 Sur 29 Sur 0 -- -- 78
2020-03-17 10:00:00 7.9 12 Sur 25 Sur 0 -- -- 78
2020-03-17 09:00:00 6.7 8 Sudoeste 15 Sudoeste 0 -- -- 73
2020-03-17 08:00:00 3.7 4 Noroeste 15 Sudeste 0 -- -- 82
2020-03-17 07:00:00 3.8 6 Este 15 Este 0 -- -- 81
2020-03-17 06:00:00 3.2 4 Oeste 10 Sudoeste 0 -- -- 80
2020-03-17 05:00:00 4.4 4 Sudoeste 20 Sur 0 -- -- 74
2020-03-17 04:00:00 4.5 6 Sur 15 Sur 0 -- -- 70
2020-03-17 03:00:00 3.7 4 Noroeste 9 Noroeste 0 -- -- 76
2020-03-17 02:00:00 3.1 4 Oeste 10 Noroeste 0 -- -- 84
2020-03-17 01:00:00 3.4 0 Calma 12 Sur 0 -- -- 84
2020-03-17 00:00:00 4.4 4 Sur 15 Norte 0 -- -- 78
2020-03-16 23:00:00 4.3 6 Nordeste 31 Norte 0.4 -- -- 82
2020-03-16 22:00:00 3.8 0 Calma 7 Sur 0.4 -- -- 96
2020-03-16 21:00:00 3.9 3 Sudoeste 22 Sudeste 0 -- -- 93
2020-03-16 20:00:00 4.5 4 Nordeste 22 Noroeste 0.2 -- -- 87
2020-03-16 19:00:00 4.5 4 Noroeste 15 Sudeste 0.2 -- -- 92
2020-03-16 18:00:00 5.4 8 Sudeste 28 Nordeste 0.2 -- -- 86
2020-03-16 17:00:00 4.5 5 Noroeste 28 Noroeste 1 -- -- 85
2020-03-16 16:00:00 4.8 13 Norte 41 Nordeste 0.6 -- -- 86
2020-03-16 15:00:00 5 26 Norte 51 Norte 0.6 -- -- 83
2020-03-16 14:00:00 3.8 10 Noroeste 84 Noroeste 0.8 -- -- 92
2020-03-16 13:00:00 3.9 39 Norte 73 Norte 0.4 -- -- 85
2020-03-16 12:00:00 3.4 43 Norte 71 Norte 0.4 -- -- 88
2020-03-16 11:00:00 3.6 37 Norte 61 Noroeste 0.4 -- -- 84
2020-03-16 10:00:00 3.2 27 Norte 53 Noroeste 0.4 -- -- 84
2020-03-16 09:00:00 2.9 27 Norte 46 Noroeste 0.2 -- -- 84
2020-03-16 08:00:00 2.3 18 Norte 46 Norte 0.6 -- -- 90
2020-03-16 07:00:00 2.3 37 Norte 68 Noroeste 0.4 -- -- 88
2020-03-16 06:00:00 2.3 41 Norte 76 Norte 0.4 -- -- 88
2020-03-16 05:00:00 2.9 45 Norte 69 Norte 0 -- -- 82
2020-03-16 04:00:00 3.4 34 Norte 73 Norte 0 -- -- 75
2020-03-16 03:00:00 4.3 45 Norte 68 Norte 0 -- -- 62
2020-03-16 02:00:00 5.1 38 Norte 64 Noroeste 0 -- -- 60
2020-03-16 01:00:00 6.4 30 Norte 62 Noroeste 0 -- -- 54
2020-03-16 00:00:00 5.9 40 Norte 59 Noroeste 0 -- -- 67
2020-03-15 23:00:00 7.9 29 Norte 47 Norte 0 -- -- 69
2020-03-15 22:00:00 9.2 21 Noroeste 37 Noroeste 0 -- -- 71
2020-03-15 21:00:00 10.5 13 Noroeste 41 Noroeste 0 -- -- 62
2020-03-15 20:00:00 11.7 12 Noroeste 39 Noroeste 0 -- -- 62
2020-03-15 19:00:00 13.9 17 Noroeste 36 Oeste 0 -- -- 58
2020-03-15 18:00:00 15.8 10 Noroeste 36 Oeste 0 -- -- 63
2020-03-15 17:00:00 16.3 19 Noroeste 37 Noroeste 0 -- -- 60
2020-03-15 16:00:00 17.8 10 Oeste 31 Sudoeste 0 -- -- 57
2020-03-15 15:00:00 18.4 11 Sudoeste 30 Sudoeste 0 -- -- 57
2020-03-15 14:00:00 18.1 9 Sur 27 Sudoeste 0 -- -- 61
2020-03-15 13:00:00 17.2 8 Sur 17 Sur 0 -- -- 62
2020-03-15 12:00:00 16.9 10 Sur 17 Sur 0 -- -- 59
2020-03-15 11:00:00 16.5 9 Sudeste 15 Sudeste 0 -- -- 62
2020-03-15 10:00:00 13.6 0 Calma 9 Sur 0 -- -- 70
2020-03-15 09:00:00 12.5 5 Sur 9 Sudoeste 0 -- -- 69
2020-03-15 08:00:00 11.8 5 Sudoeste 11 Sudoeste 0 -- -- 68
2020-03-15 07:00:00 12.5 6 Noroeste 10 Noroeste 0 -- -- 64
2020-03-15 06:00:00 12.8 0 Calma 6 Sudoeste 0 -- -- 65
2020-03-15 05:00:00 13.2 4 Sudoeste 17 Noroeste 0 -- -- 63
2020-03-15 04:00:00 13.6 8 Noroeste 15 Noroeste 0 -- -- 60
2020-03-15 03:00:00 14.2 4 Noroeste 13 Noroeste 0 -- -- 57
2020-03-15 02:00:00 13.8 6 Noroeste 13 Noroeste 0 -- -- 59
2020-03-15 01:00:00 14.4 0 Calma 13 Noroeste 0 -- -- 57
2020-03-15 00:00:00 15.5 10 Noroeste 19 Noroeste 0 -- -- 54
2020-03-14 23:00:00 15.2 13 Noroeste 20 Noroeste 0 -- -- 55
2020-03-14 22:00:00 14.7 14 Noroeste 20 Noroeste 0 -- -- 56
2020-03-14 21:00:00 15 6 Norte 12 Noroeste 0 -- -- 57
2020-03-14 20:00:00 15.5 7 Noroeste 10 Noroeste 0 -- -- 59
2020-03-14 19:00:00 17.3 5 Noroeste 18 Sur 0 -- -- 54
2020-03-14 18:00:00 19.8 6 Sur 18 Sur 0 -- -- 47
2020-03-14 17:00:00 20 6 Sudeste 21 Sudeste 0 -- -- 49
2020-03-14 16:00:00 20.9 10 Sudeste 19 Sur 0 -- -- 49
2020-03-14 15:00:00 20.6 9 Sudeste 22 Sudeste 0 -- -- 42
2020-03-14 14:00:00 19.9 10 Sudeste 19 Sudeste 0 -- -- 54
2020-03-14 13:00:00 19.2 10 Sudeste 18 Sur 0 -- -- 57
2020-03-14 12:00:00 18 7 Sudeste 15 Sudeste 0 -- -- 59
2020-03-14 11:00:00 17.4 9 Sur 16 Sudeste 0 -- -- 59
2020-03-14 10:00:00 16.5 8 Sur 13 Sudoeste 0 -- -- 63
2020-03-14 09:00:00 15.3 2 Sudeste 8 Noroeste 0 -- -- 62
2020-03-14 08:00:00 11.9 4 Noroeste 8 Noroeste 0 -- -- 73
2020-03-14 07:00:00 12.4 2 Oeste 5 Noroeste 0 -- -- 77
2020-03-14 06:00:00 12.3 2 Noroeste 11 Noroeste 0 -- -- 74
2020-03-14 05:00:00 12.3 4 Noroeste 8 Noroeste 0 -- -- 75
2020-03-14 04:00:00 13.3 6 Noroeste 17 Noroeste 0 -- -- 74
2020-03-14 03:00:00 13.5 9 Noroeste 14 Noroeste 0 -- -- 65
2020-03-14 02:00:00 13.8 3 Oeste 13 Noroeste 0 -- -- 65
2020-03-14 01:00:00 14.5 6 Noroeste 12 Noroeste 0 -- -- 65
2020-03-14 00:00:00 14.5 2 Noroeste 6 Noroeste 0 -- -- 63
2020-03-13 23:00:00 15 8 Noroeste 16 Noroeste 0 -- -- 59
2020-03-13 22:00:00 15.5 7 Noroeste 13 Noroeste 0 -- -- 58
2020-03-13 21:00:00 15.5 5 Noroeste 22 Nordeste 0 -- -- 59
2020-03-13 20:00:00 16.3 11 Norte 22 Noroeste 0 -- -- 59
2020-03-13 19:00:00 17.6 2 Oeste 13 Sudeste 0 -- -- 63
2020-03-13 18:00:00 18.9 8 Sudeste 14 Este 0 -- -- 59
2020-03-13 17:00:00 20.3 6 Sudeste 15 Sudeste 0 -- -- 60
2020-03-13 16:00:00 19.6 5 Sudeste 18 Sudeste 0 -- -- 63
2020-03-13 15:00:00 18.6 5 Este 23 Sur 0 -- -- 64
2020-03-13 14:00:00 20.2 13 Sudeste 24 Sudeste 0 -- -- 62
2020-03-13 13:00:00 19.1 11 Sudeste 18 Sudeste 0 -- -- 67
2020-03-13 12:00:00 18.1 11 Sur 18 Sur 0 -- -- 70
2020-03-13 11:00:00 17.4 10 Sur 16 Sur 0 -- -- 71
2020-03-13 10:00:00 16.3 6 Sur 11 Sudeste 0 -- -- 67
2020-03-13 09:00:00 15.3 2 Este 5 Sur 0 -- -- 62
2020-03-13 08:00:00 12.1 3 Noroeste 8 Noroeste 0 -- -- 69
2020-03-13 07:00:00 12.4 0 Calma 6 Noroeste 0 -- -- 67
2020-03-13 06:00:00 13.1 3 Noroeste 5 Noroeste 0 -- -- 65
2020-03-13 05:00:00 14.5 0 Calma 5 Noroeste 0 -- -- 61
2020-03-13 04:00:00 15 2 Noroeste 12 Noroeste 0 -- -- 58
2020-03-13 03:00:00 15 3 Noroeste 9 Noroeste 0 -- -- 57
2020-03-13 02:00:00 16.2 0 Calma 16 Noroeste 0 -- -- 53
2020-03-13 01:00:00 16.9 3 Oeste 12 Noroeste 0 -- -- 52
2020-03-13 00:00:00 17 8 Noroeste 14 Noroeste 0 -- -- 51
2020-03-12 23:00:00 17.1 9 Noroeste 16 Oeste 0 -- -- 54
2020-03-12 22:00:00 16.7 11 Noroeste 18 Noroeste 0 -- -- 55
2020-03-12 21:00:00 17.2 8 Noroeste 16 Noroeste 0 -- -- 55
2020-03-12 20:00:00 17.6 5 Noroeste 15 Noroeste 0 -- -- 53
2020-03-12 19:00:00 19.5 3 Oeste 13 Oeste 0 -- -- 49
2020-03-12 18:00:00 21.5 10 Sudoeste 19 Sudoeste 0 -- -- 46
2020-03-12 17:00:00 23.3 9 Sur 24 Sur 0 -- -- 39
2020-03-12 16:00:00 23.6 9 Sur 19 Sudeste 0 -- -- 36
2020-03-12 15:00:00 23.9 11 Sur 22 Sur 0 -- -- 35
2020-03-12 14:00:00 23.3 10 Sur 17 Sur 0 -- -- 39
2020-03-12 13:00:00 22.9 11 Sur 20 Sur 0 -- -- 44
2020-03-12 12:00:00 22.1 8 Sur 15 Sudeste 0 -- -- 45
2020-03-12 11:00:00 20.3 8 Sur 12 Sur 0 -- -- 45
2020-03-12 10:00:00 19 2 Sudeste 5 Sudeste 0 -- -- 56
2020-03-12 09:00:00 18.1 2 Sur 5 Sur 0 -- -- 54
2020-03-12 08:00:00 16.3 0 Calma 8 Noroeste 0 -- -- 54
2020-03-12 07:00:00 16.1 3 Oeste 10 Sudoeste 0 -- -- 51
2020-03-12 06:00:00 16.7 0 Calma 10 Noroeste 0 -- -- 44
2020-03-12 05:00:00 17.1 0 Calma 9 Oeste 0 -- -- 42
2020-03-12 04:00:00 18.1 6 Sudoeste 10 Noroeste 0 -- -- 36
2020-03-12 03:00:00 18.1 5 Oeste 14 Noroeste 0 -- -- 35
2020-03-12 02:00:00 18 0 Calma 6 Noroeste 0 -- -- 35
2020-03-12 01:00:00 19 2 Sudoeste 8 Noroeste 0 -- -- 32
2020-03-12 00:00:00 18.9 0 Calma 11 Noroeste 0 -- -- 34
2020-03-11 23:00:00 19.3 0 Calma 14 Noroeste 0 -- -- 32
2020-03-11 22:00:00 19.3 9 Noroeste 16 Noroeste 0 -- -- 33
2020-03-11 21:00:00 19.3 12 Noroeste 18 Noroeste 0 -- -- 35
2020-03-11 20:00:00 19.6 7 Noroeste 13 Noroeste 0 -- -- 38
2020-03-11 19:00:00 20.6 4 Norte 8 Noroeste 0 -- -- 52
2020-03-11 18:00:00 22.5 2 Sur 4 Este 0 -- -- 51
2020-03-11 17:00:00 22.8 2 Sur 8 Sur 0 -- -- 49
2020-03-11 16:00:00 23.6 6 Sur 13 Sur 0 -- -- 48
2020-03-11 15:00:00 23.4 9 Sur 15 Sudeste 0 -- -- 47
2020-03-11 14:00:00 23.3 9 Sur 16 Sur 0 -- -- 47
2020-03-11 13:00:00 22.3 9 Sur 15 Sudeste 0 -- -- 46
2020-03-11 12:00:00 21.1 8 Sudeste 13 Sur 0 -- -- 50
2020-03-11 11:00:00 19 5 Sudeste 10 Sudeste 0 -- -- 56
2020-03-11 10:00:00 17 4 Sudeste 7 Sudeste 0 -- -- 59
2020-03-11 09:00:00 15.4 3 Sudeste 5 Sur 0 -- -- 62
2020-03-11 08:00:00 13.1 0 Calma 4 Sudoeste 0 -- -- 65
2020-03-11 07:00:00 13.5 0 Calma 2 Sudeste 0 -- -- 64
2020-03-11 06:00:00 14.4 0 Calma 8 Noroeste 0 -- -- 62
2020-03-11 05:00:00 14.4 0 Calma 4 Noroeste 0 -- -- 60
2020-03-11 04:00:00 14.5 3 Norte 4 Norte 0 -- -- 60
2020-03-11 03:00:00 14.8 0 Calma 2 Sudeste 0 -- -- 61
2020-03-11 02:00:00 15.1 0 Calma 6 Noroeste 0 -- -- 60
2020-03-11 01:00:00 15.4 0 Calma 8 Noroeste 0 -- -- 60
2020-03-11 00:00:00 15.6 3 Sur 6 Sudoeste 0 -- -- 61
2020-03-10 23:00:00 15.9 3 Sudoeste 5 Noroeste 0 -- -- 60
2020-03-10 22:00:00 16 0 Calma 9 Noroeste 0 -- -- 60
2020-03-10 21:00:00 15.9 0 Calma 9 Norte 0 -- -- 60
2020-03-10 20:00:00 16.4 2 Este 8 Sudoeste 0 -- -- 60
2020-03-10 19:00:00 17.7 4 Sudoeste 9 Sudoeste 0 -- -- 56
2020-03-10 18:00:00 21 5 Sudoeste 11 Sur 0 -- -- 48
2020-03-10 17:00:00 21.3 7 Sur 12 Sudeste 0 -- -- 49
2020-03-10 16:00:00 20.1 7 Sur 12 Sur 0 -- -- 50
2020-03-10 15:00:00 19.7 10 Sudeste 17 Sudeste 0 -- -- 48
2020-03-10 14:00:00 18.5 9 Sudeste 17 Sudeste 0 -- -- 53
2020-03-10 13:00:00 18.5 12 Sudeste 19 Sur 0 -- -- 48
2020-03-10 12:00:00 17.5 9 Sudeste 16 Sudeste 0 -- -- 41
2020-03-10 11:00:00 15.3 3 Sudeste 8 Sudeste 0 -- -- 46
2020-03-10 10:00:00 14.4 4 Sudeste 8 Sudeste 0 -- -- 46
2020-03-10 09:00:00 11.9 0 Calma 10 Noroeste 0 -- -- 53
2020-03-10 08:00:00 10.2 0 Calma 5 Sudoeste 0 -- -- 53
2020-03-10 07:00:00 10.7 4 Sudoeste 12 Sur 0 -- -- 53
2020-03-10 06:00:00 11.1 5 Noroeste 6 Noroeste 0 -- -- 50
2020-03-10 05:00:00 11.7 0 Calma 5 Sudoeste 0 -- -- 51
2020-03-10 04:00:00 11.7 3 Sudoeste 8 Sudoeste 0 -- -- 49
2020-03-10 03:00:00 11.8 4 Noroeste 15 Noroeste 0 -- -- 50
2020-03-10 02:00:00 11.6 9 Noroeste 15 Noroeste 0 -- -- 52
2020-03-10 01:00:00 11.9 6 Noroeste 17 Noroeste 0 -- -- 53
2020-03-10 00:00:00 12 4 Sudoeste 9 Noroeste 0 -- -- 58
2020-03-09 23:00:00 12.4 7 Oeste 15 Sudoeste 0 -- -- 53
2020-03-09 22:00:00 13.5 8 Noroeste 13 Noroeste 0 -- -- 46
2020-03-09 21:00:00 13.7 8 Noroeste 14 Noroeste 0 -- -- 46
2020-03-09 20:00:00 14.9 11 Norte 24 Noroeste 0 -- -- 42
2020-03-09 19:00:00 15 5 Noroeste 12 Noroeste 0 -- -- 60
2020-03-09 18:00:00 17.5 4 Sudoeste 10 Sur 0 -- -- 53
2020-03-09 17:00:00 18 5 Sur 17 Sur 0 -- -- 52
2020-03-09 16:00:00 17.6 9 Sudeste 19 Sur 0 -- -- 54
2020-03-09 15:00:00 16.7 9 Sudeste 18 Sur 0 -- -- 56
2020-03-09 14:00:00 15.9 8 Sur 19 Sudeste 0 -- -- 57
2020-03-09 13:00:00 14.6 9 Sudeste 17 Sudeste 0 -- -- 60
2020-03-09 12:00:00 13.9 8 Sudeste 15 Sur 0 -- -- 63
2020-03-09 11:00:00 12.3 7 Sur 16 Sur 0 -- -- 67
2020-03-09 10:00:00 10.8 6 Sur 13 Sur 0 -- -- 66
2020-03-09 09:00:00 9.6 6 Sur 13 Sur 0 -- -- 61
2020-03-09 08:00:00 8.9 5 Oeste 18 Sudoeste 0 -- -- 53
2020-03-09 07:00:00 10.7 6 Sur 28 Sudoeste 0 -- -- 43
2020-03-09 06:00:00 12.7 6 Sudoeste 29 Nordeste 0 -- -- 24
2020-03-09 05:00:00 13.3 9 Norte 35 Norte 0 -- -- 21
2020-03-09 04:00:00 12.6 20 Norte 37 Norte 0 -- -- 25
2020-03-09 03:00:00 12.3 26 Norte 53 Noroeste 0 -- -- 33
2020-03-09 02:00:00 11.3 35 Norte 51 Norte 0 -- -- 50
2020-03-09 01:00:00 11.2 17 Norte 45 Noroeste 0 -- -- 50
2020-03-09 00:00:00 11.2 18 Noroeste 45 Norte 0 -- -- 56